Terminal Aerodrome Forecast
Issued by NWS Wakefield, VA

Home | Current Version | Previous Version | Text Only | Print | Product List | Glossary On
Versions: 1 2 3 4 5 6 7 8 9 10 11 12 13 14 15 16 17 18 19 20 21
702
FTUS41 KAKQ 031139
TAFORF
TAF
KORF 031139Z 0312/0412 22009KT P6SM -RA BKN025 OVC060
     FM031800 25011KT P6SM SCT015 BKN035
     FM032100 24008KT P6SM VCSH OVC040
     FM040000 36004KT P6SM VCSH BKN050
     FM040300 07004KT 4SM BR OVC015=

USA.gov is the U.S. government's official web portal to all federal, state and local government web resources and services.